createdAt,value
2023-04-14T00:01:47.872Z,5.90
2023-04-14T00:04:15.276Z,5.90
2023-04-14T00:06:42.479Z,5.90
2023-04-14T00:09:10.201Z,5.80
2023-04-14T00:11:37.066Z,5.70
2023-04-14T00:14:03.970Z,5.60
2023-04-14T00:16:31.234Z,5.60
2023-04-14T00:18:58.443Z,5.70
2023-04-14T00:21:27.058Z,5.80
2023-04-14T00:23:54.086Z,5.80
2023-04-14T00:26:21.233Z,5.90
2023-04-14T00:28:48.104Z,6.00
2023-04-14T00:31:15.140Z,6.00
2023-04-14T00:33:42.072Z,6.10
2023-04-14T00:36:08.971Z,6.10
2023-04-14T00:38:35.847Z,6.10
2023-04-14T00:41:02.995Z,6.00
2023-04-14T00:43:29.946Z,6.10
2023-04-14T00:45:57.023Z,6.00
2023-04-14T00:48:24.091Z,5.90
2023-04-14T00:50:51.710Z,5.90
2023-04-14T00:53:20.052Z,6.00
2023-04-14T00:55:47.289Z,5.90
2023-04-14T00:58:15.899Z,5.90
2023-04-14T01:00:43.327Z,5.80
2023-04-14T01:03:10.585Z,5.80
2023-04-14T01:05:37.616Z,5.80
2023-04-14T01:08:05.000Z,5.80
2023-04-14T01:10:39.035Z,5.70
2023-04-14T01:13:16.182Z,5.60
2023-04-14T01:15:57.723Z,5.40
2023-04-14T01:19:06.110Z,5.30
2023-04-14T01:21:40.754Z,5.10
2023-04-14T01:24:28.720Z,5.00
2023-04-14T01:27:12.567Z,5.00
2023-04-14T01:30:17.370Z,5.00
2023-04-14T01:32:46.760Z,4.90
2023-04-14T01:35:23.326Z,4.80
2023-04-14T01:37:54.455Z,4.70
2023-04-14T01:40:24.180Z,4.70
2023-04-14T01:43:02.743Z,4.60
2023-04-14T01:45:36.798Z,4.50
2023-04-14T01:48:05.095Z,4.40
2023-04-14T01:50:34.677Z,4.30
2023-04-14T01:53:02.504Z,4.20
2023-04-14T01:55:31.272Z,4.30
2023-04-14T01:57:58.839Z,4.30
2023-04-14T02:00:26.622Z,4.30
2023-04-14T02:02:54.476Z,4.30
2023-04-14T02:05:22.749Z,4.20
2023-04-14T02:07:51.644Z,4.20
2023-04-14T02:10:21.474Z,4.10
2023-04-14T02:12:52.874Z,4.10
2023-04-14T02:15:22.325Z,4.00
2023-04-14T02:17:50.282Z,4.00
2023-04-14T02:20:19.946Z,4.00
2023-04-14T02:22:47.424Z,4.00
2023-04-14T02:25:14.446Z,4.00
2023-04-14T02:27:56.470Z,4.10
2023-04-14T02:30:30.477Z,4.20
2023-04-14T02:33:06.020Z,4.10
2023-04-14T02:35:44.481Z,4.00
2023-04-14T02:38:18.615Z,4.00
2023-04-14T02:40:46.137Z,3.90
2023-04-14T02:43:19.259Z,3.80
2023-04-14T02:45:50.767Z,3.70
2023-04-14T02:48:21.404Z,3.60
2023-04-14T02:50:51.058Z,3.60
2023-04-14T02:53:22.488Z,3.70
2023-04-14T02:55:51.888Z,3.70
2023-04-14T02:58:19.701Z,3.60
2023-04-14T03:00:47.104Z,3.60
2023-04-14T03:03:15.345Z,3.50
2023-04-14T03:05:44.237Z,3.50
2023-04-14T03:08:14.364Z,3.50
2023-04-14T03:10:44.806Z,3.60
2023-04-14T03:13:13.863Z,3.70
2023-04-14T03:15:42.019Z,3.70
2023-04-14T03:18:11.120Z,3.70
2023-04-14T03:20:40.495Z,3.70
2023-04-14T03:23:11.845Z,3.60
2023-04-14T03:25:40.427Z,3.60
2023-04-14T03:28:13.571Z,3.50
2023-04-14T03:30:46.229Z,3.50
2023-04-14T03:33:16.476Z,3.50
2023-04-14T03:35:45.551Z,3.60
2023-04-14T03:38:14.976Z,3.60
2023-04-14T03:40:46.302Z,3.60
2023-04-14T03:43:19.896Z,3.70
2023-04-14T03:45:49.285Z,3.60
2023-04-14T03:48:19.172Z,3.70
2023-04-14T03:50:49.904Z,3.70
2023-04-14T03:53:18.860Z,3.70
2023-04-14T03:55:48.126Z,3.70
2023-04-14T03:58:17.240Z,3.70
2023-04-14T04:00:45.353Z,3.70
2023-04-14T04:03:14.745Z,3.70
2023-04-14T04:05:43.106Z,3.70
2023-04-14T04:08:11.004Z,3.60
2023-04-14T04:10:39.024Z,3.60
2023-04-14T04:13:16.504Z,3.70
2023-04-14T04:15:45.515Z,3.70
2023-04-14T04:18:16.589Z,3.60
2023-04-14T04:20:44.421Z,3.60
2023-04-14T04:23:12.349Z,3.60
2023-04-14T04:25:40.637Z,3.50
2023-04-14T04:28:07.960Z,3.60
2023-04-14T04:30:40.678Z,3.70
2023-04-14T04:33:08.563Z,3.60
2023-04-14T04:35:36.474Z,3.70
2023-04-14T04:38:05.126Z,3.70
2023-04-14T04:40:38.723Z,3.70
2023-04-14T04:43:05.826Z,3.60
2023-04-14T04:45:58.736Z,3.60
2023-04-14T04:48:25.978Z,3.60
2023-04-14T04:50:52.876Z,3.60
2023-04-14T04:53:19.872Z,3.50
2023-04-14T04:55:46.814Z,3.50
2023-04-14T04:58:13.677Z,3.50
2023-04-14T05:00:40.723Z,3.50
2023-04-14T05:03:07.742Z,3.50
2023-04-14T05:05:38.043Z,3.60
2023-04-14T05:08:05.334Z,3.60
2023-04-14T05:10:35.431Z,3.60
2023-04-14T05:13:02.524Z,3.60
2023-04-14T05:15:29.499Z,3.60
2023-04-14T05:17:56.598Z,3.60
2023-04-14T05:20:23.494Z,3.70
2023-04-14T05:22:50.427Z,3.70
2023-04-14T05:25:17.389Z,3.80
2023-04-14T05:27:44.235Z,3.80
2023-04-14T05:30:12.031Z,3.80
2023-04-14T05:32:38.896Z,3.90
2023-04-14T05:35:05.985Z,4.00
2023-04-14T05:37:34.475Z,4.10
2023-04-14T05:40:03.628Z,4.20
2023-04-14T05:42:30.828Z,4.30
2023-04-14T05:44:57.740Z,4.40
2023-04-14T05:47:24.640Z,4.50
2023-04-14T05:49:51.546Z,4.60
2023-04-14T05:52:18.380Z,4.70
2023-04-14T05:54:45.441Z,4.80
2023-04-14T05:57:12.334Z,4.90
2023-04-14T05:59:39.205Z,5.10
2023-04-14T06:02:07.561Z,5.20
2023-04-14T06:04:34.829Z,5.40
2023-04-14T06:07:03.065Z,5.40
2023-04-14T06:09:29.975Z,5.60
2023-04-14T06:11:57.478Z,5.70
2023-04-14T06:14:24.423Z,5.90
2023-04-14T06:16:51.519Z,5.90
2023-04-14T06:19:18.834Z,6.10
2023-04-14T06:21:47.103Z,6.20
2023-04-14T06:24:14.025Z,6.30
2023-04-14T06:26:40.973Z,6.30
2023-04-14T06:29:07.991Z,6.40
2023-04-14T06:31:35.674Z,6.50
2023-04-14T06:34:02.604Z,6.70
2023-04-14T06:36:29.660Z,6.90
2023-04-14T06:38:58.008Z,7.10
2023-04-14T06:41:25.296Z,7.30
2023-04-14T06:43:52.337Z,7.60
2023-04-14T06:46:19.341Z,8.00
2023-04-14T06:48:46.250Z,8.60
2023-04-14T06:51:13.748Z,9.20
2023-04-14T06:53:40.877Z,9.80
2023-04-14T06:56:08.403Z,10.40
2023-04-14T06:58:35.564Z,11.00
2023-04-14T07:01:03.849Z,11.70
2023-04-14T07:03:31.580Z,12.40
2023-04-14T07:06:10.302Z,12.60
2023-04-14T07:08:38.187Z,13.20
2023-04-14T07:11:08.680Z,13.70
2023-04-14T07:13:36.658Z,14.20
2023-04-14T07:16:04.492Z,14.10
2023-04-14T07:18:31.813Z,14.30
2023-04-14T07:21:00.397Z,14.20
2023-04-14T07:23:27.964Z,14.30
2023-04-14T07:25:58.951Z,14.30
2023-04-14T07:28:28.470Z,14.20
2023-04-14T07:30:55.713Z,14.10
2023-04-14T07:33:22.836Z,13.90
2023-04-14T07:36:01.314Z,13.70
2023-04-14T07:38:30.210Z,13.60
2023-04-14T07:40:57.591Z,13.60
2023-04-14T07:43:24.755Z,13.70
2023-04-14T07:45:53.088Z,13.90
2023-04-14T07:48:21.463Z,13.90
2023-04-14T07:50:51.869Z,13.80
2023-04-14T07:53:18.763Z,13.70
2023-04-14T07:55:45.751Z,13.70
2023-04-14T07:58:15.408Z,13.50
2023-04-14T08:00:43.165Z,13.50
2023-04-14T08:03:10.349Z,13.30
2023-04-14T08:05:37.845Z,12.90
2023-04-14T08:08:05.128Z,12.80
2023-04-14T08:10:32.107Z,12.90
2023-04-14T08:12:59.809Z,12.90
2023-04-14T08:15:27.973Z,12.90
2023-04-14T08:17:54.912Z,12.40
2023-04-14T08:20:22.915Z,12.40
2023-04-14T08:22:49.797Z,12.40
2023-04-14T08:25:16.835Z,12.40
2023-04-14T08:27:44.279Z,12.40
2023-04-14T08:30:11.811Z,12.50
2023-04-14T08:32:38.813Z,12.60
2023-04-14T08:35:36.325Z,12.70
2023-04-14T08:37:53.335Z,12.70
2023-04-14T08:40:22.523Z,12.60
2023-04-14T08:42:49.488Z,12.30
2023-04-14T08:45:16.421Z,12.30
2023-04-14T08:47:45.939Z,12.10
2023-04-14T08:50:18.515Z,12.20
2023-04-14T08:52:47.198Z,12.30
2023-04-14T08:55:16.135Z,12.40
2023-04-14T08:57:44.241Z,12.30
2023-04-14T09:00:11.698Z,12.30
2023-04-14T09:02:42.876Z,12.50
2023-04-14T09:05:11.352Z,12.20
2023-04-14T09:07:38.682Z,12.10
2023-04-14T09:10:06.576Z,12.00
2023-04-14T09:12:34.634Z,12.10
2023-04-14T09:15:02.768Z,12.30
2023-04-14T09:17:31.063Z,12.60
2023-04-14T09:20:37.848Z,12.40
2023-04-14T09:22:46.102Z,12.30
2023-04-14T09:25:15.855Z,12.20
2023-04-14T09:27:42.826Z,12.10
2023-04-14T09:30:10.481Z,12.00
2023-04-14T09:32:38.547Z,11.60
2023-04-14T09:35:06.259Z,11.60
2023-04-14T09:37:46.891Z,11.70
2023-04-14T09:40:32.121Z,11.60
2023-04-14T09:42:59.470Z,11.70
2023-04-14T09:45:45.014Z,11.80
2023-04-14T09:48:15.397Z,11.90
2023-04-14T09:51:07.168Z,11.90
2023-04-14T09:53:36.001Z,12.00
2023-04-14T09:56:07.575Z,12.10
2023-04-14T09:58:39.439Z,12.20
2023-04-14T10:01:17.965Z,12.40
2023-04-14T10:03:47.535Z,12.40
2023-04-14T10:06:22.807Z,12.50
2023-04-14T10:08:52.099Z,12.50
2023-04-14T10:11:29.895Z,12.60
2023-04-14T10:13:59.346Z,12.60
2023-04-14T10:16:27.377Z,12.60
2023-04-14T10:18:54.987Z,12.60
2023-04-14T10:21:24.567Z,12.70
2023-04-14T10:23:52.140Z,12.80
2023-04-14T10:26:19.680Z,12.90
2023-04-14T10:28:49.830Z,12.80
2023-04-14T10:31:28.693Z,12.60
2023-04-14T10:33:55.930Z,12.50
2023-04-14T10:36:32.638Z,12.60
2023-04-14T10:39:02.301Z,12.50
2023-04-14T10:41:50.784Z,12.50
2023-04-14T10:44:35.210Z,12.70
2023-04-14T10:47:04.941Z,12.50
2023-04-14T10:49:38.222Z,12.50
2023-04-14T10:52:12.816Z,12.50
2023-04-14T10:54:53.463Z,12.50
2023-04-14T10:57:27.950Z,12.60
2023-04-14T10:59:57.168Z,12.60
2023-04-14T11:02:28.190Z,12.70
2023-04-14T11:05:02.426Z,12.70
2023-04-14T11:07:30.605Z,12.70
2023-04-14T11:10:24.067Z,12.80
2023-04-14T11:13:12.946Z,12.70
2023-04-14T11:15:52.230Z,12.60
2023-04-14T11:18:44.782Z,12.60
2023-04-14T11:21:15.954Z,12.70
2023-04-14T11:23:43.516Z,12.80
2023-04-14T11:26:13.440Z,13.00
2023-04-14T11:28:45.061Z,13.10
2023-04-14T11:31:15.246Z,13.20
2023-04-14T11:33:42.528Z,13.10
2023-04-14T11:36:11.242Z,13.00
2023-04-14T11:38:41.465Z,13.00
2023-04-14T11:41:09.396Z,13.00
2023-04-14T11:43:38.298Z,12.80
2023-04-14T11:46:06.024Z,12.60
2023-04-14T11:48:33.022Z,12.60
2023-04-14T11:51:03.633Z,12.60
2023-04-14T11:53:32.175Z,12.60
2023-04-14T11:56:00.757Z,12.60
2023-04-14T11:58:28.914Z,12.70
2023-04-14T12:00:57.658Z,12.80
2023-04-14T12:03:29.389Z,12.90
2023-04-14T12:06:01.637Z,12.90
2023-04-14T12:08:33.052Z,12.90
2023-04-14T12:11:15.233Z,12.90
2023-04-14T12:13:47.047Z,13.10
2023-04-14T12:16:15.356Z,13.10
2023-04-14T12:18:43.050Z,13.10
2023-04-14T12:21:11.860Z,13.10
2023-04-14T12:23:40.767Z,13.00
2023-04-14T12:26:12.064Z,12.90
2023-04-14T12:28:41.381Z,12.80
2023-04-14T12:31:09.401Z,12.80
2023-04-14T12:33:36.413Z,12.90
2023-04-14T12:36:09.900Z,12.90
2023-04-14T12:38:36.871Z,12.90
2023-04-14T12:41:04.959Z,13.00
2023-04-14T12:43:35.680Z,12.90
2023-04-14T12:46:03.897Z,12.80
2023-04-14T12:48:48.485Z,12.50
2023-04-14T12:51:19.679Z,12.60
2023-04-14T12:53:50.517Z,12.60
2023-04-14T12:56:20.002Z,12.70
2023-04-14T12:58:48.568Z,13.00
2023-04-14T13:01:17.211Z,13.00
2023-04-14T13:03:49.997Z,13.10
2023-04-14T13:06:18.832Z,13.10
2023-04-14T13:08:50.822Z,13.20
2023-04-14T13:11:19.561Z,13.20
2023-04-14T13:13:47.288Z,13.10
2023-04-14T13:16:17.645Z,12.90
2023-04-14T13:18:47.963Z,12.80
2023-04-14T13:21:15.643Z,12.70
2023-04-14T13:23:42.650Z,12.90
2023-04-14T13:26:10.076Z,12.80
2023-04-14T13:28:37.196Z,13.00
2023-04-14T13:31:04.305Z,13.10
2023-04-14T13:33:33.166Z,13.10
2023-04-14T13:36:02.255Z,13.00
2023-04-14T13:38:29.492Z,12.90
2023-04-14T13:40:56.387Z,13.00
2023-04-14T13:43:23.320Z,13.00
2023-04-14T13:45:50.501Z,13.10
2023-04-14T13:48:17.427Z,13.10
2023-04-14T13:50:44.366Z,13.10
2023-04-14T13:53:12.379Z,13.10
2023-04-14T13:55:39.512Z,13.20
2023-04-14T13:58:06.418Z,13.10
2023-04-14T14:00:33.443Z,13.00
2023-04-14T14:03:00.912Z,13.00
2023-04-14T14:05:28.386Z,13.00
2023-04-14T14:07:56.592Z,13.00
2023-04-14T14:10:23.537Z,13.10
2023-04-14T14:12:50.720Z,13.10
2023-04-14T14:15:17.648Z,13.20
2023-04-14T14:17:44.544Z,13.30
2023-04-14T14:20:11.516Z,13.30
2023-04-14T14:22:38.949Z,13.30
2023-04-14T14:25:18.539Z,13.30
2023-04-14T14:27:47.089Z,13.30
2023-04-14T14:30:14.164Z,13.20
2023-04-14T14:32:41.126Z,13.10
2023-04-14T14:35:08.543Z,13.10
2023-04-14T14:37:35.782Z,13.20
2023-04-14T14:40:03.511Z,13.40
2023-04-14T14:42:30.973Z,13.60
2023-04-14T14:44:59.512Z,13.80
2023-04-14T14:47:28.376Z,13.90
2023-04-14T14:50:01.679Z,13.90
2023-04-14T14:52:34.706Z,13.70
2023-04-14T14:55:03.657Z,13.50
2023-04-14T14:57:31.086Z,13.30
2023-04-14T14:59:58.708Z,13.40
2023-04-14T15:02:26.211Z,13.20
2023-04-14T15:04:54.279Z,13.10
2023-04-14T15:07:21.174Z,13.00
2023-04-14T15:09:48.903Z,12.90
2023-04-14T15:12:15.807Z,12.70
2023-04-14T15:14:42.818Z,12.70
2023-04-14T15:17:09.738Z,12.80
2023-04-14T15:19:38.292Z,12.80
2023-04-14T15:22:05.163Z,12.90
2023-04-14T15:24:32.389Z,13.00
2023-04-14T15:26:59.294Z,12.90
2023-04-14T15:29:26.661Z,12.70
2023-04-14T15:31:53.658Z,12.80
2023-04-14T15:34:21.424Z,12.70
2023-04-14T15:36:48.606Z,12.70
2023-04-14T15:39:15.758Z,12.70
2023-04-14T15:41:42.810Z,12.90
2023-04-14T15:44:09.932Z,12.80
2023-04-14T15:46:36.872Z,12.80
2023-04-14T15:49:03.761Z,12.80
2023-04-14T15:51:30.663Z,12.40
2023-04-14T15:53:57.629Z,12.40
2023-04-14T15:56:24.444Z,12.50
2023-04-14T15:58:51.419Z,12.40
2023-04-14T16:01:18.350Z,12.30
2023-04-14T16:03:45.631Z,12.20
2023-04-14T16:06:12.801Z,12.20
2023-04-14T16:08:39.736Z,11.90
2023-04-14T16:11:07.798Z,11.90
2023-04-14T16:13:34.686Z,11.90
2023-04-14T16:16:01.615Z,11.90
2023-04-14T16:18:28.543Z,11.70
2023-04-14T16:20:55.400Z,11.60
2023-04-14T16:23:22.344Z,11.60
2023-04-14T16:25:49.977Z,11.70
2023-04-14T16:28:21.786Z,11.70
2023-04-14T16:30:53.009Z,11.50
2023-04-14T16:33:20.266Z,11.40
2023-04-14T16:35:47.218Z,11.30
2023-04-14T16:38:14.215Z,11.40
2023-04-14T16:40:41.424Z,11.40
2023-04-14T16:43:09.570Z,11.40
2023-04-14T16:45:36.618Z,11.50
2023-04-14T16:48:03.781Z,11.50
2023-04-14T16:50:37.052Z,11.40
2023-04-14T16:53:04.170Z,11.40
2023-04-14T16:55:33.694Z,11.40
2023-04-14T16:58:00.942Z,11.40
2023-04-14T17:00:28.352Z,11.40
2023-04-14T17:02:55.491Z,11.40
2023-04-14T17:05:22.813Z,11.30
2023-04-14T17:07:50.170Z,11.30
2023-04-14T17:10:17.177Z,11.10
2023-04-14T17:12:44.929Z,11.10
2023-04-14T17:15:12.159Z,11.00
2023-04-14T17:17:39.186Z,10.90
2023-04-14T17:20:07.245Z,10.70
2023-04-14T17:22:35.105Z,10.60
2023-04-14T17:25:04.963Z,10.70
2023-04-14T17:27:32.012Z,10.70
2023-04-14T17:29:59.307Z,10.70
2023-04-14T17:32:27.705Z,10.50
2023-04-14T17:34:54.623Z,10.50
2023-04-14T17:37:22.011Z,10.40
2023-04-14T17:39:49.266Z,10.30
2023-04-14T17:42:16.217Z,10.30
2023-04-14T17:44:43.247Z,10.20
2023-04-14T17:47:16.783Z,10.10
2023-04-14T17:49:46.375Z,10.00
2023-04-14T17:52:13.446Z,10.00
2023-04-14T17:54:40.476Z,10.10
2023-04-14T17:57:12.911Z,10.00
2023-04-14T17:59:41.613Z,9.90
2023-04-14T18:02:09.029Z,9.80
2023-04-14T18:04:36.478Z,9.80
2023-04-14T18:07:04.626Z,9.80
2023-04-14T18:09:31.566Z,9.60
2023-04-14T18:11:59.044Z,9.60
2023-04-14T18:14:27.421Z,9.60
2023-04-14T18:16:54.747Z,9.60
2023-04-14T18:19:23.045Z,9.50
2023-04-14T18:21:50.263Z,9.40
2023-04-14T18:26:47.644Z,9.40
2023-04-14T18:29:14.580Z,9.40
2023-04-14T18:31:42.661Z,9.40
2023-04-14T18:34:10.406Z,9.40
2023-04-14T18:36:38.042Z,9.30
2023-04-14T18:39:05.045Z,9.30
2023-04-14T18:41:31.922Z,9.20
2023-04-14T18:43:58.908Z,9.20
2023-04-14T18:46:25.874Z,9.10
2023-04-14T18:48:53.053Z,9.10
2023-04-14T18:51:19.921Z,9.10
2023-04-14T18:53:46.822Z,9.00
2023-04-14T18:56:13.976Z,9.00
2023-04-14T18:58:40.980Z,9.00
2023-04-14T19:01:08.889Z,8.90
2023-04-14T19:03:36.613Z,9.00
2023-04-14T19:06:13.066Z,9.00
2023-04-14T19:08:40.263Z,9.10
2023-04-14T19:11:07.903Z,9.10
2023-04-14T19:13:34.876Z,9.10
2023-04-14T19:16:09.049Z,9.00
2023-04-14T19:18:36.045Z,9.00
2023-04-14T19:21:03.680Z,9.00
2023-04-14T19:23:30.790Z,9.00
2023-04-14T19:25:57.956Z,8.90
2023-04-14T19:28:26.050Z,9.00
2023-04-14T19:30:53.330Z,8.90
2023-04-14T19:33:20.893Z,9.00
2023-04-14T19:35:49.048Z,8.90
2023-04-14T19:38:16.344Z,8.90
2023-04-14T19:40:48.453Z,8.80
2023-04-14T19:43:18.822Z,8.70
2023-04-14T19:45:52.810Z,8.70
2023-04-14T19:48:23.928Z,8.80
2023-04-14T19:50:55.097Z,8.80
2023-04-14T19:53:23.199Z,8.70
2023-04-14T19:55:51.561Z,8.60
2023-04-14T19:58:21.825Z,8.50
2023-04-14T20:00:51.676Z,8.40
2023-04-14T20:03:22.116Z,8.40
2023-04-14T20:05:54.789Z,8.40
2023-04-14T20:08:23.491Z,8.50
2023-04-14T20:10:52.689Z,8.40
2023-04-14T20:13:24.445Z,8.40
2023-04-14T20:15:53.990Z,8.40
2023-04-14T20:18:22.661Z,8.30
2023-04-14T20:20:50.228Z,8.30
2023-04-14T20:23:17.274Z,8.30
2023-04-14T20:25:45.442Z,8.30
2023-04-14T20:28:12.510Z,8.30
2023-04-14T20:30:39.539Z,8.30
2023-04-14T20:33:06.561Z,8.30
2023-04-14T20:35:36.177Z,8.20
2023-04-14T20:38:03.333Z,8.20
2023-04-14T20:40:31.082Z,8.20
2023-04-14T20:42:58.198Z,8.20
2023-04-14T20:45:25.327Z,8.10
2023-04-14T20:47:52.477Z,8.20
2023-04-14T20:50:19.547Z,8.10
2023-04-14T20:52:46.737Z,8.00
2023-04-14T20:55:13.976Z,8.10
2023-04-14T20:57:45.020Z,8.20
2023-04-14T21:00:16.658Z,8.10
2023-04-14T21:02:44.694Z,8.10
2023-04-14T21:05:12.651Z,8.20
2023-04-14T21:07:40.112Z,8.10
2023-04-14T21:10:09.016Z,8.00
2023-04-14T21:12:36.494Z,8.00
2023-04-14T21:15:47.474Z,8.00
2023-04-14T21:18:10.454Z,8.00
2023-04-14T21:20:37.400Z,8.00
2023-04-14T21:23:04.251Z,8.00
2023-04-14T21:25:31.199Z,8.00
2023-04-14T21:27:58.692Z,8.00
2023-04-14T21:30:25.675Z,8.10
2023-04-14T21:32:52.646Z,8.00
2023-04-14T21:35:19.671Z,8.00
2023-04-14T21:37:47.258Z,8.10
2023-04-14T21:40:14.336Z,8.10
2023-04-14T21:42:41.488Z,8.00
2023-04-14T21:45:08.700Z,8.00
2023-04-14T21:47:36.071Z,8.00
2023-04-14T21:50:03.026Z,8.00
2023-04-14T21:52:30.062Z,8.00
2023-04-14T21:54:56.955Z,8.00
2023-04-14T21:57:42.608Z,8.00
2023-04-14T22:00:16.344Z,8.00
2023-04-14T22:02:45.084Z,8.00
2023-04-14T22:05:12.646Z,8.00
2023-04-14T22:07:39.879Z,8.00
2023-04-14T22:10:07.325Z,8.00
2023-04-14T22:12:37.835Z,8.00
2023-04-14T22:15:06.596Z,8.00
2023-04-14T22:17:33.600Z,8.00
2023-04-14T22:20:00.852Z,8.10
2023-04-14T22:22:28.037Z,8.00
2023-04-14T22:24:55.782Z,8.00
2023-04-14T22:27:23.009Z,7.90
2023-04-14T22:29:50.019Z,7.90
2023-04-14T22:32:17.209Z,7.90
2023-04-14T22:34:44.230Z,7.90
2023-04-14T22:37:11.361Z,7.90
2023-04-14T22:39:38.330Z,8.00
2023-04-14T22:42:05.264Z,7.90
2023-04-14T22:44:32.152Z,7.90
2023-04-14T22:46:59.078Z,8.00
2023-04-14T22:49:26.180Z,8.00
2023-04-14T22:51:53.324Z,8.00
2023-04-14T22:54:20.228Z,8.00
2023-04-14T22:56:48.150Z,8.00
2023-04-14T22:59:16.825Z,8.00
2023-04-14T23:01:43.927Z,8.00
2023-04-14T23:04:10.966Z,7.90
2023-04-14T23:06:37.962Z,8.00
2023-04-14T23:09:05.695Z,7.90
2023-04-14T23:11:32.698Z,7.90
2023-04-14T23:13:59.616Z,7.90
2023-04-14T23:16:26.672Z,7.90
2023-04-14T23:18:53.681Z,8.00
2023-04-14T23:21:24.995Z,7.90
2023-04-14T23:23:52.478Z,7.90
2023-04-14T23:26:21.187Z,8.00
2023-04-14T23:28:48.274Z,8.00
2023-04-14T23:31:15.214Z,8.00
2023-04-14T23:33:42.052Z,7.90
2023-04-14T23:36:08.932Z,7.90
2023-04-14T23:38:35.895Z,8.00
2023-04-14T23:41:02.810Z,8.00
2023-04-14T23:43:29.784Z,8.00
2023-04-14T23:45:56.940Z,8.00
2023-04-14T23:48:24.025Z,8.00
2023-04-14T23:50:59.685Z,8.00
2023-04-14T23:53:32.917Z,8.00
2023-04-14T23:55:59.921Z,7.90
2023-04-14T23:58:30.147Z,7.90
